TimeEDT,TemperatureF,Dew PointF,Humidity,Sea Level PressureIn,VisibilityMPH,Wind Direction,Wind SpeedMPH,Gust SpeedMPH,PrecipitationIn,Events,Conditions,WindDirDegrees,DateUTC
12:53 AM,66.9,63.0,87,30.01,8.0,Calm,Calm,-,N/A,,Clear,0,2013-10-05 04:53:00
1:53 AM,69.1,64.0,84,30.01,8.0,Calm,Calm,-,N/A,,Clear,0,2013-10-05 05:53:00
2:53 AM,68.0,64.0,87,30.00,8.0,ENE,3.5,-,N/A,,Mostly Cloudy,60,2013-10-05 06:53:00
3:53 AM,68.0,64.0,87,30.00,9.0,Calm,Calm,-,N/A,,Mostly Cloudy,0,2013-10-05 07:53:00
4:53 AM,66.0,63.0,90,30.02,8.0,Calm,Calm,-,N/A,,Clear,0,2013-10-05 08:53:00
5:53 AM,66.0,62.1,87,30.03,9.0,ENE,3.5,-,N/A,,Clear,60,2013-10-05 09:53:00
6:53 AM,64.9,61.0,87,30.04,7.0,North,4.6,-,N/A,,Clear,360,2013-10-05 10:53:00
7:53 AM,66.9,62.1,84,30.05,5.0,Calm,Calm,-,N/A,,Haze,0,2013-10-05 11:53:00
8:29 AM,68.0,64.4,88,30.07,5.0,Calm,Calm,-,N/A,,Scattered Clouds,0,2013-10-05 12:29:00
8:53 AM,69.1,64.0,84,30.06,4.0,Calm,Calm,-,N/A,,Haze,0,2013-10-05 12:53:00
9:53 AM,73.0,64.9,76,30.07,5.0,Variable,3.5,-,N/A,,Haze,0,2013-10-05 13:53:00
10:53 AM,75.9,64.9,69,30.07,9.0,Calm,Calm,-,N/A,,Clear,0,2013-10-05 14:53:00
11:49 AM,77.0,64.4,65,30.07,9.0,East,4.6,-,N/A,,Mostly Cloudy,100,2013-10-05 15:49:00
11:53 AM,77.0,66.0,69,30.06,9.0,ENE,4.6,-,N/A,,Scattered Clouds,60,2013-10-05 15:53:00
12:53 PM,79.0,64.9,62,30.04,10.0,Calm,Calm,-,N/A,,Clear,0,2013-10-05 16:53:00
1:53 PM,79.0,64.9,62,30.01,10.0,SSE,3.5,-,N/A,,Partly Cloudy,150,2013-10-05 17:53:00
2:16 PM,80.6,66.2,61,30.03,10.0,ENE,4.6,-,N/A,,Mostly Cloudy,70,2013-10-05 18:16:00
2:31 PM,78.8,64.4,61,30.03,10.0,Calm,Calm,-,N/A,,Mostly Cloudy,0,2013-10-05 18:31:00
2:53 PM,81.0,66.0,60,30.01,10.0,Variable,5.8,-,N/A,,Mostly Cloudy,0,2013-10-05 18:53:00
3:53 PM,81.0,66.0,60,30.00,9.0,ESE,4.6,-,N/A,,Partly Cloudy,120,2013-10-05 19:53:00
4:53 PM,81.0,64.9,58,29.99,9.0,ESE,4.6,-,N/A,,Clear,120,2013-10-05 20:53:00
5:53 PM,78.1,66.0,66,30.00,9.0,ESE,9.2,-,N/A,,Clear,120,2013-10-05 21:53:00
6:53 PM,73.0,64.9,76,30.01,8.0,SE,6.9,-,N/A,,Clear,140,2013-10-05 22:53:00
7:53 PM,70.0,64.0,81,30.03,8.0,ESE,5.8,-,N/A,,Clear,120,2013-10-05 23:53:00
8:53 PM,68.0,63.0,84,30.04,7.0,Variable,4.6,-,N/A,,Clear,0,2013-10-06 00:53:00
9:38 PM,66.2,62.6,88,30.07,6.0,SSE,8.1,-,N/A,,Scattered Clouds,150,2013-10-06 01:38:00
9:53 PM,66.0,62.1,87,30.05,6.0,SE,8.1,-,N/A,,Mostly Cloudy,140,2013-10-06 01:53:00
10:53 PM,66.0,63.0,90,30.06,6.0,SE,5.8,-,N/A,,Overcast,140,2013-10-06 02:53:00
11:53 PM,66.0,63.0,90,30.06,5.0,SE,4.6,-,N/A,,Overcast,140,2013-10-06 03:53:00